Time;durP1;ratioP1;P1;durP2;ratioP2;P2;SDS_P1;SDS_P2;PMS_P1;PMS_P2;Temp;Humidity;BMP_temperature;BMP_pressure;BME280_temperature;BME280_humidity;BME280_pressure;Samples;Min_cycle;Max_cycle;Signal;HPM_P1;HPM_P2
2022/03/30 00:01:01;;;;;;;37.98;18.65;;;;;;;7.09;97.33;149440.75;1724197;82;21052;-61
2022/03/30 00:03:29;;;;;;;33.83;18.35;;;;;;;7.07;97.27;149435.56;1814327;79;21310;-62
2022/03/30 00:05:57;;;;;;;38.75;18.10;;;;;;;7.08;97.44;149438.16;1806680;79;21897;-61
2022/03/30 00:08:26;;;;;;;33.35;17.77;;;;;;;7.09;97.21;149440.75;1782006;80;21467;-63
2022/03/30 00:10:53;;;;;;;45.45;17.80;;;;;;;7.03;96.59;149426.50;1780998;80;21152;-62
2022/03/30 00:13:20;;;;;;;37.98;18.32;;;;;;;6.90;96.48;149391.56;1749112;80;21546;-61
2022/03/30 00:15:48;;;;;;;42.62;18.27;;;;;;;6.80;96.80;149368.28;1787177;79;21615;-62
2022/03/30 00:18:15;;;;;;;37.03;18.30;;;;;;;6.70;97.24;149342.37;1813995;79;21266;-62
2022/03/30 00:20:44;;;;;;;37.73;19.62;;;;;;;6.64;97.70;149326.88;1780478;79;20964;-62
2022/03/30 00:23:12;;;;;;;39.50;19.50;;;;;;;6.63;98.42;149324.28;1814002;78;20944;-61
2022/03/30 00:25:41;;;;;;;37.50;19.17;;;;;;;6.65;98.78;149329.45;1814056;77;20917;-63
2022/03/30 00:28:09;;;;;;;31.45;20.50;;;;;;;6.67;98.90;149335.94;1813862;79;21019;-63
2022/03/30 00:30:38;;;;;;;41.55;23.45;;;;;;;6.72;99.01;149347.55;1814161;79;21331;-63
2022/03/30 00:33:05;;;;;;;40.65;22.27;;;;;;;6.80;99.08;149366.97;1779671;79;21056;-61
2022/03/30 00:35:33;;;;;;;36.98;22.60;;;;;;;6.87;99.09;149385.13;1813642;79;21008;-62
2022/03/30 00:38:03;;;;;;;37.58;21.90;;;;;;;6.95;98.94;149404.48;1780314;77;21078;-63
2022/03/30 00:40:31;;;;;;;39.85;23.07;;;;;;;7.03;98.65;149425.22;1814377;78;20949;-63
2022/03/30 00:42:59;;;;;;;41.70;22.15;;;;;;;7.11;98.32;149444.64;1813459;77;21626;-61
2022/03/30 00:45:26;;;;;;;46.77;21.50;;;;;;;7.19;98.08;149464.06;1803924;77;21040;-61
2022/03/30 00:47:54;;;;;;;43.50;22.60;;;;;;;7.27;97.82;149484.77;1778636;79;21016;-60
2022/03/30 00:50:22;;;;;;;37.45;23.30;;;;;;;7.34;97.32;149502.88;1803044;79;21718;-60
2022/03/30 00:52:51;;;;;;;40.55;23.42;;;;;;;7.38;96.78;149513.22;1803577;79;21568;-59
2022/03/30 00:55:19;;;;;;;35.83;22.48;;;;;;;7.42;96.34;149523.61;1802909;78;21488;-59
2022/03/30 00:57:47;;;;;;;43.63;22.98;;;;;;;7.43;95.98;149524.88;1802626;79;21475;-60
2022/03/30 01:00:16;;;;;;;39.83;23.25;;;;;;;7.44;95.60;149528.78;1802720;79;21087;-60
2022/03/30 01:02:46;;;;;;;42.58;22.00;;;;;;;7.45;95.24;149531.38;1802556;79;21013;-63
2022/03/30 01:05:13;;;;;;;37.05;21.48;;;;;;;7.49;94.87;149540.41;1803032;79;21561;-62
2022/03/30 01:07:42;;;;;;;42.88;23.02;;;;;;;7.55;94.49;149554.66;1803085;79;20988;-60
2022/03/30 01:10:11;;;;;;;40.33;21.55;;;;;;;7.58;93.92;149562.42;1730413;81;21029;-60
2022/03/30 01:12:39;;;;;;;41.00;22.58;;;;;;;7.58;93.31;149562.42;1803234;79;21000;-59
2022/03/30 01:15:10;;;;;;;44.13;23.62;;;;;;;7.54;92.98;149552.06;1802352;79;21056;-61
2022/03/30 01:17:37;;;;;;;40.88;21.85;;;;;;;7.49;92.75;149539.14;1803019;79;20949;-61
2022/03/30 01:20:07;;;;;;;38.65;21.93;;;;;;;7.43;92.50;149524.88;1803020;79;21223;-60
2022/03/30 01:22:35;;;;;;;38.42;23.07;;;;;;;7.40;92.36;149518.39;1802980;79;20917;-61
2022/03/30 01:25:05;;;;;;;40.83;23.98;;;;;;;7.37;92.17;149510.62;1802554;79;21024;-60
2022/03/30 01:27:33;;;;;;;46.48;22.37;;;;;;;7.37;92.08;149510.62;1803043;79;21430;-62
2022/03/30 01:32:56;;;;;;;43.70;23.57;;;;;;;7.37;91.88;149510.62;1777958;79;21132;-62
2022/03/30 01:35:25;;;;;;;48.65;23.00;;;;;;;7.41;91.62;149519.72;1803472;78;21395;-60
2022/03/30 01:37:52;;;;;;;40.20;21.70;;;;;;;7.44;91.27;149528.78;1802738;78;21079;-61
2022/03/30 01:40:19;;;;;;;41.90;22.17;;;;;;;7.49;90.90;149540.41;1778630;78;21675;-60
2022/03/30 01:42:50;;;;;;;33.65;20.77;;;;;;;7.52;90.42;149548.22;1802763;79;21077;-60
2022/03/30 01:45:19;;;;;;;34.20;21.30;;;;;;;7.53;90.01;149549.48;1802974;79;21145;-60
2022/03/30 01:47:57;;;;;;;41.20;21.68;;;;;;;7.53;89.68;149549.48;1778537;79;20991;-61
2022/03/30 01:50:27;;;;;;;41.35;23.40;;;;;;;7.51;89.47;149544.31;1802968;79;21032;-62
2022/03/30 01:52:55;;;;;;;40.28;21.70;;;;;;;7.53;89.25;149549.48;1802330;79;21080;-60
2022/03/30 01:55:23;;;;;;;40.70;21.77;;;;;;;7.54;88.88;149553.39;1803084;79;21016;-60
2022/03/30 01:57:50;;;;;;;36.65;20.85;;;;;;;7.54;88.53;149552.06;1802783;78;21227;-61
2022/03/30 02:00:19;;;;;;;41.92;22.02;;;;;;;7.54;88.21;149552.06;1803151;79;20996;-61
2022/03/30 02:02:47;;;;;;;39.08;21.37;;;;;;;7.54;88.03;149552.06;1803200;79;21024;-61
2022/03/30 02:05:18;;;;;;;37.83;23.00;;;;;;;7.52;87.79;149546.91;1802493;79;21032;-60
2022/03/30 02:07:45;;;;;;;36.08;21.27;;;;;;;7.53;87.64;149549.48;1802871;79;20989;-59
2022/03/30 02:10:14;;;;;;;39.83;22.42;;;;;;;7.54;87.34;149552.06;1802925;78;21647;-60
2022/03/30 02:12:42;;;;;;;41.90;23.45;;;;;;;7.53;87.07;149549.48;1802825;79;21025;-61
2022/03/30 02:15:11;;;;;;;39.53;22.67;;;;;;;7.51;86.90;149545.58;1802610;79;21020;-61
2022/03/30 02:17:40;;;;;;;47.05;23.30;;;;;;;7.51;86.77;149544.31;1803224;79;20926;-61
2022/03/30 02:20:08;;;;;;;40.10;22.37;;;;;;;7.51;86.80;149544.31;1803015;79;20980;-60
2022/03/30 02:22:36;;;;;;;41.15;22.75;;;;;;;7.52;86.58;149546.91;1803388;79;21202;-60
2022/03/30 02:25:04;;;;;;;37.20;22.67;;;;;;;7.50;86.36;149541.72;1803077;78;21027;-61
2022/03/30 02:27:33;;;;;;;41.88;22.48;;;;;;;7.48;86.22;149537.81;1803541;79;21105;-60
2022/03/30 02:30:00;;;;;;;48.08;24.07;;;;;;;7.48;86.25;149536.55;1778580;79;21102;-60
2022/03/30 02:32:28;;;;;;;46.28;23.20;;;;;;;7.46;86.27;149532.64;1803321;79;21035;-60
2022/03/30 02:34:55;;;;;;;40.98;23.55;;;;;;;7.42;86.35;149523.61;1777967;79;21698;-62
2022/03/30 02:37:22;;;;;;;42.27;23.15;;;;;;;7.42;86.47;149523.61;1803327;79;21071;-60
2022/03/30 02:39:50;;;;;;;37.67;22.30;;;;;;;7.41;86.60;149519.72;1803106;79;21446;-60
2022/03/30 02:42:17;;;;;;;40.88;22.85;;;;;;;7.40;86.44;149518.39;1778445;79;21040;-61
2022/03/30 02:44:46;;;;;;;45.67;23.92;;;;;;;7.36;86.41;149508.03;1778712;79;21479;-60
2022/03/30 02:47:14;;;;;;;42.85;24.75;;;;;;;7.32;86.42;149497.69;1802559;79;22032;-60
2022/03/30 02:49:42;;;;;;;41.08;23.32;;;;;;;7.29;86.45;149489.94;1778055;79;20918;-60
2022/03/30 02:52:09;;;;;;;40.55;23.05;;;;;;;7.26;86.55;149482.17;1777407;79;21008;-60
2022/03/30 02:54:37;;;;;;;43.58;23.92;;;;;;;7.20;86.71;149466.66;1802841;78;20973;-61
2022/03/30 02:57:05;;;;;;;44.85;23.87;;;;;;;7.16;86.73;149457.58;1803008;79;20992;-61
2022/03/30 02:59:34;;;;;;;43.75;23.70;;;;;;;7.11;86.78;149445.91;1802728;79;21184;-60
2022/03/30 03:02:01;;;;;;;44.95;23.02;;;;;;;7.04;86.88;149427.81;1802739;79;21457;-61
2022/03/30 03:04:28;;;;;;;47.67;25.37;;;;;;;7.01;87.00;149420.05;1802891;79;21004;-60
2022/03/30 03:06:56;;;;;;;43.45;24.30;;;;;;;6.97;87.23;149409.70;1801852;79;21062;-60
2022/03/30 03:09:25;;;;;;;36.40;21.93;;;;;;;6.96;87.38;149407.08;1753360;79;21028;-60
2022/03/30 03:11:52;;;;;;;40.38;22.75;;;;;;;6.93;87.39;149400.63;1802929;79;21219;-61
2022/03/30 03:14:20;;;;;;;39.20;22.98;;;;;;;6.88;87.40;149388.97;1802420;78;21600;-60
2022/03/30 03:16:48;;;;;;;42.43;23.67;;;;;;;6.84;87.53;149377.31;1802809;79;21059;-61
2022/03/30 03:19:17;;;;;;;41.65;23.27;;;;;;;6.77;87.66;149360.53;1778800;79;21513;-60
2022/03/30 03:21:44;;;;;;;39.33;24.55;;;;;;;6.72;87.91;149347.55;1802790;79;21016;-60
2022/03/30 03:24:12;;;;;;;42.00;23.57;;;;;;;6.70;88.18;149342.37;1803020;79;21329;-60
2022/03/30 03:26:40;;;;;;;45.80;24.15;;;;;;;6.69;88.13;149341.11;1803189;78;21012;-61
2022/03/30 03:29:07;;;;;;;41.95;23.87;;;;;;;6.68;88.13;149337.20;1802785;79;21043;-61
2022/03/30 03:31:36;;;;;;;40.28;23.40;;;;;;;6.67;88.15;149334.62;1779155;79;20936;-62
2022/03/30 03:34:03;;;;;;;40.75;23.18;;;;;;;6.69;88.02;149339.80;1802871;79;21277;-62
2022/03/30 03:36:31;;;;;;;38.10;22.65;;;;;;;6.68;87.87;149338.53;1803531;78;21238;-62
2022/03/30 03:38:58;;;;;;;44.63;23.75;;;;;;;6.69;87.70;149339.80;1802624;79;21508;-62
2022/03/30 03:41:25;;;;;;;43.50;23.00;;;;;;;6.68;87.56;149337.20;1803429;79;21064;-61
2022/03/30 03:43:54;;;;;;;43.20;24.23;;;;;;;6.68;87.55;149337.20;1802728;79;21624;-61
2022/03/30 03:46:22;;;;;;;42.05;23.45;;;;;;;6.72;87.31;149347.55;1802831;77;21847;-61
2022/03/30 03:48:50;;;;;;;43.13;23.42;;;;;;;6.74;87.08;149352.72;1801092;79;21112;-63
2022/03/30 03:51:17;;;;;;;40.23;22.98;;;;;;;6.73;86.89;149350.13;1796218;79;21086;-62
2022/03/30 03:53:44;;;;;;;42.10;24.70;;;;;;;6.73;86.78;149350.13;1796248;79;21045;-62
2022/03/30 03:56:12;;;;;;;41.55;22.73;;;;;;;6.73;86.69;149350.13;1796191;79;21478;-62
2022/03/30 03:58:39;;;;;;;42.83;23.32;;;;;;;6.72;86.61;149347.55;1773391;79;21323;-62
2022/03/30 04:01:06;;;;;;;44.55;24.72;;;;;;;6.72;86.49;149348.87;1802763;79;21127;-62
2022/03/30 04:03:33;;;;;;;42.78;24.52;;;;;;;6.73;86.41;149351.45;1803447;79;21013;-61
2022/03/30 04:06:00;;;;;;;39.67;23.30;;;;;;;6.76;86.29;149357.94;1802518;79;21028;-62
2022/03/30 04:08:28;;;;;;;38.88;22.27;;;;;;;6.82;85.97;149373.45;1778962;79;21012;-62
2022/03/30 04:10:55;;;;;;;36.73;22.90;;;;;;;6.84;85.67;149378.63;1743317;79;21120;-61
2022/03/30 04:13:23;;;;;;;39.53;23.15;;;;;;;6.84;85.30;149378.63;1802494;79;21997;-61
2022/03/30 04:15:51;;;;;;;34.80;21.80;;;;;;;6.85;85.00;149381.22;1802679;79;20953;-61
2022/03/30 04:18:19;;;;;;;39.15;22.98;;;;;;;6.84;84.73;149377.31;1802679;79;21275;-60
2022/03/30 04:20:46;;;;;;;42.43;22.48;;;;;;;6.82;84.53;149373.45;1778224;79;21367;-60
2022/03/30 04:23:14;;;;;;;46.37;24.05;;;;;;;6.82;84.37;149373.45;1802864;78;21020;-60
2022/03/30 04:25:41;;;;;;;39.38;22.50;;;;;;;6.79;84.02;149365.69;1803362;79;20948;-61
2022/03/30 04:28:08;;;;;;;37.65;23.02;;;;;;;6.76;83.80;149357.94;1803064;79;21056;-59
2022/03/30 04:30:36;;;;;;;42.60;23.05;;;;;;;6.75;83.65;149355.36;1803504;79;20989;-60
2022/03/30 04:33:04;;;;;;;38.75;23.55;;;;;;;6.75;83.58;149355.36;1803418;79;21063;-61
2022/03/30 04:35:31;;;;;;;40.60;23.50;;;;;;;6.77;83.54;149359.20;1803376;79;20972;-62
2022/03/30 04:37:59;;;;;;;39.98;23.70;;;;;;;6.81;83.51;149370.88;1802807;79;21239;-62
2022/03/30 04:40:27;;;;;;;41.30;23.20;;;;;;;6.85;83.47;149379.91;1778741;79;21106;-61
2022/03/30 04:42:56;;;;;;;38.40;22.70;;;;;;;6.90;83.25;149391.56;1803688;79;20964;-62
2022/03/30 04:45:23;;;;;;;39.38;22.42;;;;;;;6.92;83.27;149398.05;1802912;79;21043;-63
2022/03/30 04:47:54;;;;;;;37.93;22.52;;;;;;;6.96;83.10;149407.08;1778403;79;21070;-62
2022/03/30 04:50:22;;;;;;;41.45;22.48;;;;;;;7.00;83.09;149417.47;1743630;79;21611;-62
2022/03/30 04:52:51;;;;;;;40.85;22.48;;;;;;;7.08;83.32;149438.16;1802991;79;21361;-62
2022/03/30 04:55:19;;;;;;;38.60;22.65;;;;;;;7.23;83.20;149475.69;1778082;79;21016;-63
2022/03/30 04:57:47;;;;;;;48.75;24.50;;;;;;;7.37;82.79;149509.36;1778510;79;21016;-60
2022/03/30 05:00:16;;;;;;;43.50;23.62;;;;;;;7.51;82.54;149545.58;1802700;79;21012;-60
2022/03/30 05:02:44;;;;;;;41.75;23.27;;;;;;;7.64;82.23;149578.00;1802477;79;21367;-61
2022/03/30 05:05:12;;;;;;;44.45;24.37;;;;;;;7.77;81.81;149609.05;1778163;79;21143;-62
2022/03/30 05:07:39;;;;;;;42.55;24.15;;;;;;;7.87;81.63;149634.97;1802992;78;20862;-62
2022/03/30 05:10:13;;;;;;;41.68;24.10;;;;;;;7.96;81.55;149657.00;1803097;79;20929;-60
2022/03/30 05:12:40;;;;;;;38.53;22.82;;;;;;;8.09;81.53;149689.38;1778385;79;20938;-60
2022/03/30 05:15:10;;;;;;;39.90;23.77;;;;;;;8.23;81.18;149725.61;1802726;78;21015;-60
2022/03/30 05:17:39;;;;;;;40.38;23.45;;;;;;;8.34;80.82;149751.53;1730584;81;20990;-61
2022/03/30 05:20:09;;;;;;;36.17;22.20;;;;;;;8.39;80.43;149764.48;1754574;81;21335;-61
2022/03/30 05:22:37;;;;;;;39.90;24.37;;;;;;;8.41;79.99;149769.66;1754766;81;21010;-62
2022/03/30 05:25:06;;;;;;;40.78;23.55;;;;;;;8.45;80.00;149780.02;1802973;79;21079;-61
2022/03/30 05:27:34;;;;;;;44.15;24.12;;;;;;;8.55;79.77;149806.00;1803176;79;22269;-62
2022/03/30 05:30:04;;;;;;;42.33;24.07;;;;;;;8.68;79.43;149837.08;1778260;79;21466;-61
2022/03/30 05:32:32;;;;;;;38.70;23.55;;;;;;;8.82;79.02;149873.38;1803461;78;21494;-60
2022/03/30 05:34:59;;;;;;;41.28;23.45;;;;;;;8.94;78.41;149903.19;1803009;79;21003;-63
2022/03/30 05:37:26;;;;;;;45.67;23.95;;;;;;;9.03;78.11;149925.23;1803337;78;21010;-62
2022/03/30 05:39:54;;;;;;;44.45;23.35;;;;;;;9.17;77.94;149961.53;1803200;79;21191;-62
2022/03/30 05:42:22;;;;;;;40.12;24.10;;;;;;;9.33;77.46;150000.41;1803071;78;21529;-63
2022/03/30 05:44:50;;;;;;;38.75;23.47;;;;;;;9.48;76.99;150036.72;1803639;79;20866;-62
2022/03/30 05:47:17;;;;;;;41.75;24.32;;;;;;;9.61;76.42;150070.41;1814921;77;20991;-63
2022/03/30 05:49:45;;;;;;;40.20;22.30;;;;;;;9.73;75.92;150101.55;1814873;78;21386;-61
2022/03/30 05:52:13;;;;;;;45.85;25.57;;;;;;;9.86;75.25;150132.70;1814081;78;21655;-62
2022/03/30 05:54:40;;;;;;;43.65;24.95;;;;;;;10.00;74.89;150167.72;1814370;79;20980;-62
2022/03/30 05:57:08;;;;;;;38.28;24.07;;;;;;;10.21;74.36;150220.88;1813511;77;21103;-62
2022/03/30 05:59:40;;;;;;;42.67;24.70;;;;;;;10.41;73.60;150271.55;1782481;79;20999;-62
2022/03/30 06:02:09;;;;;;;41.60;25.00;;;;;;;10.60;72.77;150319.55;1814587;79;20912;-63
2022/03/30 06:04:36;;;;;;;42.25;24.47;;;;;;;10.77;72.08;150361.09;1814977;79;21737;-62
2022/03/30 06:07:05;;;;;;;41.80;24.65;;;;;;;10.94;71.61;150403.91;1782861;77;21008;-63
2022/03/30 06:09:33;;;;;;;39.10;23.32;;;;;;;11.12;71.06;150449.33;1814883;77;21004;-62
2022/03/30 06:12:04;;;;;;;39.85;24.60;;;;;;;11.31;70.48;150496.06;1815022;77;21148;-62
2022/03/30 06:14:33;;;;;;;42.67;24.43;;;;;;;11.53;69.77;150550.61;1746414;80;20937;-62
2022/03/30 06:17:06;;;;;;;38.70;24.35;;;;;;;11.74;68.93;150605.16;1754075;81;21399;-60
2022/03/30 06:19:37;;;;;;;42.23;24.05;;;;;;;11.96;68.12;150658.44;1814706;78;21035;-61
2022/03/30 06:22:08;;;;;;;39.95;22.75;;;;;;;12.16;67.29;150709.13;1814497;77;21083;-60
2022/03/30 06:24:36;;;;;;;35.35;23.90;;;;;;;12.34;66.74;150753.31;1783719;79;20932;-60
2022/03/30 06:27:04;;;;;;;35.92;23.87;;;;;;;12.55;66.23;150807.89;1814602;79;20996;-60
2022/03/30 06:29:34;;;;;;;39.58;23.10;;;;;;;12.79;65.44;150867.66;1814615;78;21216;-60
2022/03/30 06:32:02;;;;;;;37.93;23.27;;;;;;;12.98;64.47;150915.75;1814026;77;21063;-60
2022/03/30 06:34:29;;;;;;;43.98;25.12;;;;;;;13.20;63.93;150970.34;1782903;79;21023;-60
2022/03/30 06:36:57;;;;;;;38.98;25.88;;;;;;;13.52;63.45;151051.03;1782992;79;21149;-60
2022/03/30 06:39:24;;;;;;;44.93;26.55;;;;;;;13.93;62.64;151153.77;1782950;79;22215;-61
2022/03/30 06:41:52;;;;;;;40.67;26.07;;;;;;;14.43;61.26;151278.66;1814443;79;21790;-60
2022/03/30 06:44:19;;;;;;;49.53;26.37;;;;;;;14.84;60.00;151382.81;1814270;78;21437;-60
2022/03/30 06:46:48;;;;;;;50.15;24.98;;;;;;;15.10;58.75;151447.91;1806527;79;20969;-60
2022/03/30 06:49:15;;;;;;;48.90;25.45;;;;;;;15.36;57.98;151512.98;1802902;79;21305;-60
2022/03/30 06:51:43;;;;;;;41.68;24.00;;;;;;;15.59;56.84;151570.33;1802909;79;20917;-61
2022/03/30 06:54:11;;;;;;;36.70;24.02;;;;;;;15.81;56.37;151625.03;1801839;79;21802;-61
2022/03/30 06:56:38;;;;;;;41.02;25.08;;;;;;;15.96;55.83;151664.13;1802346;79;21399;-62
2022/03/30 06:59:05;;;;;;;50.20;26.40;;;;;;;16.13;55.46;151705.81;1777376;79;21087;-60
2022/03/30 07:01:34;;;;;;;41.88;26.95;;;;;;;16.28;54.79;151743.59;1803529;79;21063;-61
2022/03/30 07:04:02;;;;;;;41.45;24.77;;;;;;;16.33;54.07;151757.94;1803361;78;20985;-60
2022/03/30 07:06:29;;;;;;;42.65;26.52;;;;;;;16.31;53.52;151752.72;1803195;79;21118;-60
2022/03/30 07:11:44;;;;;;;39.03;25.60;;;;;;;16.31;53.64;151751.41;1803202;78;21051;-61
2022/03/30 07:14:12;;;;;;;41.92;26.45;;;;;;;16.31;53.41;151752.72;1803044;79;20964;-61
2022/03/30 07:16:40;;;;;;;41.92;26.45;;;;;;;16.25;53.46;151737.11;1803645;79;21040;-60
2022/03/30 07:19:08;;;;;;;41.05;25.15;;;;;;;16.19;53.63;151721.44;1778450;79;21895;-60
2022/03/30 07:21:35;;;;;;;39.18;25.85;;;;;;;16.13;53.65;151705.81;1803706;79;20961;-60
2022/03/30 07:24:05;;;;;;;43.52;23.95;;;;;;;16.02;53.58;151679.73;1802757;79;21024;-60
2022/03/30 07:26:32;;;;;;;41.75;25.25;;;;;;;15.93;53.79;151655.03;1803332;78;21027;-63
2022/03/30 07:28:59;;;;;;;39.45;23.62;;;;;;;15.89;54.13;151645.91;1802837;79;20999;-64
2022/03/30 07:31:27;;;;;;;52.45;25.30;;;;;;;15.83;54.21;151631.52;1803229;79;21115;-59
2022/03/30 07:33:54;;;;;;;37.25;22.93;;;;;;;15.75;54.38;151610.69;1777970;79;22178;-60
2022/03/30 07:36:21;;;;;;;44.70;25.12;;;;;;;15.68;54.46;151593.75;1802525;79;21024;-60
2022/03/30 07:38:48;;;;;;;40.28;23.30;;;;;;;15.58;54.68;151567.67;1802804;78;21017;-60
2022/03/30 07:41:16;;;;;;;40.33;23.38;;;;;;;15.56;54.86;151562.47;1801455;79;21028;-62
2022/03/30 07:43:45;;;;;;;41.55;23.02;;;;;;;15.61;54.91;151575.53;1800086;79;21801;-62
2022/03/30 07:46:13;;;;;;;43.05;23.05;;;;;;;15.73;54.69;151606.77;1799443;79;21075;-62
2022/03/30 07:48:41;;;;;;;39.75;21.75;;;;;;;15.87;54.48;151641.92;1792398;78;21483;-62
2022/03/30 07:51:08;;;;;;;35.35;21.95;;;;;;;16.01;54.17;151675.86;1799461;79;21073;-60
2022/03/30 07:53:52;;;;;;;37.30;21.93;;;;;;;16.13;53.82;151705.81;1781031;79;21044;-62
2022/03/30 07:56:20;;;;;;;33.83;22.55;;;;;;;16.23;53.60;151730.58;1779442;80;21979;-60
2022/03/30 07:58:49;;;;;;;41.50;22.58;;;;;;;16.32;53.44;151754.00;1770550;79;21569;-62
2022/03/30 08:01:17;;;;;;;38.25;22.35;;;;;;;16.39;53.31;151770.95;1716986;82;21087;-60
2022/03/30 08:03:45;;;;;;;35.15;21.95;;;;;;;16.43;53.21;151781.38;1746708;80;21054;-59
2022/03/30 08:06:13;;;;;;;31.15;21.10;;;;;;;16.43;52.84;151782.69;1779122;80;21103;-62
2022/03/30 08:08:40;;;;;;;38.45;22.10;;;;;;;16.39;52.68;151772.28;1747082;80;21264;-61
2022/03/30 08:11:09;;;;;;;39.53;21.35;;;;;;;16.35;52.57;151760.53;1781113;79;21059;-60
2022/03/30 08:13:37;;;;;;;34.83;20.30;;;;;;;16.31;52.52;151752.72;1816197;78;21542;-60
2022/03/30 08:16:06;;;;;;;39.03;21.57;;;;;;;16.31;52.47;151752.72;1772139;78;21059;-61
2022/03/30 08:18:34;;;;;;;35.73;21.90;;;;;;;16.33;52.37;151757.94;1777501;79;21458;-63
2022/03/30 08:23:49;;;;;;;34.38;20.32;;;;;;;16.39;52.21;151772.28;1777544;80;20930;-63
2022/03/30 08:26:16;;;;;;;37.75;21.57;;;;;;;16.42;52.08;151778.77;1777457;80;21028;-62
2022/03/30 08:28:43;;;;;;;35.70;21.15;;;;;;;16.48;52.12;151794.44;1789256;79;20956;-64
2022/03/30 08:31:10;;;;;;;36.23;21.60;;;;;;;16.57;52.04;151816.55;1794052;79;21111;-64
2022/03/30 08:33:38;;;;;;;40.52;21.50;;;;;;;16.66;51.71;151838.70;1803921;78;21221;-62
2022/03/30 08:36:07;;;;;;;37.88;21.27;;;;;;;16.75;51.56;151862.19;1816304;78;20920;-63
2022/03/30 08:38:34;;;;;;;39.23;22.13;;;;;;;16.83;51.42;151883.03;1795132;78;21107;-63
2022/03/30 08:41:02;;;;;;;35.70;21.05;;;;;;;16.88;51.00;151896.05;1781980;79;21024;-62
2022/03/30 08:43:30;;;;;;;33.63;21.70;;;;;;;16.93;50.61;151906.52;1812154;78;20999;-63
2022/03/30 08:46:00;;;;;;;39.55;22.60;;;;;;;16.97;50.35;151916.94;1813592;78;21217;-64
2022/03/30 08:48:28;;;;;;;36.20;21.57;;;;;;;17.03;50.14;151932.61;1825915;78;21051;-63
2022/03/30 08:51:00;;;;;;;34.67;20.97;;;;;;;17.13;49.87;151958.70;1825422;78;21039;-62
2022/03/30 08:53:27;;;;;;;33.95;21.60;;;;;;;17.23;49.67;151982.16;1825262;78;21064;-64
2022/03/30 08:55:55;;;;;;;42.05;22.27;;;;;;;17.33;49.47;152009.53;1825072;78;21008;-60
2022/03/30 08:58:23;;;;;;;35.17;20.57;;;;;;;17.46;49.18;152042.12;1793477;78;21992;-61
2022/03/30 09:00:52;;;;;;;33.18;21.20;;;;;;;17.61;49.06;152078.66;1826030;78;20973;-63
2022/03/30 09:03:19;;;;;;;38.00;21.12;;;;;;;17.78;48.77;152120.34;1825890;78;22049;-61
2022/03/30 09:05:46;;;;;;;44.23;21.62;;;;;;;17.93;48.51;152159.48;1826149;78;21422;-62
2022/03/30 09:08:20;;;;;;;33.48;20.50;;;;;;;18.10;48.17;152201.28;1768037;78;22107;-63
2022/03/30 09:10:51;;;;;;;33.58;20.10;;;;;;;18.24;47.87;152237.83;1825564;78;20928;-64
2022/03/30 09:13:20;;;;;;;32.88;19.57;;;;;;;18.37;47.61;152270.44;1825851;78;20924;-62
2022/03/30 09:15:50;;;;;;;35.80;19.87;;;;;;;18.50;47.30;152303.06;1794092;78;21418;-63
2022/03/30 09:18:17;;;;;;;36.90;19.27;;;;;;;18.60;47.04;152329.13;1826154;78;20963;-63
2022/03/30 09:20:57;;;;;;;32.17;17.87;;;;;;;18.69;45.40;152350.03;1821443;78;21106;-64
2022/03/30 09:23:26;;;;;;;37.08;20.17;;;;;;;18.82;43.49;152383.94;1793530;78;21109;-63
2022/03/30 09:25:53;;;;;;;35.88;20.62;;;;;;;18.98;43.83;152423.11;1793787;78;20880;-63
2022/03/30 09:28:22;;;;;;;32.23;19.90;;;;;;;19.11;44.77;152457.06;1793650;78;21018;-63
2022/03/30 09:30:51;;;;;;;33.13;20.48;;;;;;;19.17;45.14;152472.77;1823697;78;21335;-67
2022/03/30 09:33:22;;;;;;;34.13;19.90;;;;;;;19.23;45.19;152485.80;1825839;78;21098;-61
2022/03/30 09:35:50;;;;;;;37.48;20.50;;;;;;;19.29;45.20;152501.45;1775133;79;21381;-62
2022/03/30 09:38:20;;;;;;;33.78;19.27;;;;;;;19.35;45.15;152517.16;1768711;78;21056;-60
2022/03/30 09:40:55;;;;;;;32.58;20.12;;;;;;;19.40;45.20;152530.20;1825770;78;21006;-62
2022/03/30 09:43:25;;;;;;;33.20;18.92;;;;;;;19.43;45.27;152538.03;1825582;78;21094;-61
2022/03/30 09:46:13;;;;;;;30.30;19.25;;;;;;;19.50;45.09;152553.69;1825530;78;20873;-61
2022/03/30 09:48:50;;;;;;;31.40;19.07;;;;;;;19.55;44.89;152566.72;1794341;78;21359;-63
2022/03/30 09:51:18;;;;;;;33.58;19.67;;;;;;;19.58;44.65;152574.59;1825322;78;21528;-62
2022/03/30 09:53:47;;;;;;;29.27;17.45;;;;;;;19.62;44.56;152585.03;1825608;78;21422;-64
2022/03/30 09:56:18;;;;;;;29.75;19.35;;;;;;;19.68;44.34;152600.69;1800518;78;21535;-61
2022/03/30 09:58:47;;;;;;;33.00;18.35;;;;;;;19.71;44.21;152608.52;1792876;79;20978;-61
2022/03/30 10:01:29;;;;;;;31.85;17.95;;;;;;;19.77;44.09;152622.89;1792979;78;21732;-64
2022/03/30 10:04:01;;;;;;;31.05;18.45;;;;;;;19.80;44.01;152629.44;1792168;80;20927;-61
2022/03/30 10:06:32;;;;;;;31.82;17.25;;;;;;;19.83;43.84;152637.28;1793014;78;21066;-62
2022/03/30 10:09:01;;;;;;;29.98;17.75;;;;;;;19.84;43.70;152639.87;1792147;80;21054;-62
2022/03/30 10:11:30;;;;;;;31.57;17.48;;;;;;;19.86;43.51;152646.38;1792878;80;21066;-64
2022/03/30 10:14:00;;;;;;;27.55;16.90;;;;;;;19.89;43.33;152652.92;1792480;78;21219;-63
2022/03/30 10:16:29;;;;;;;27.40;17.40;;;;;;;19.88;43.14;152651.59;1792574;78;21101;-63
2022/03/30 10:18:56;;;;;;;33.08;17.25;;;;;;;19.85;42.92;152643.77;1801301;78;21382;-61
2022/03/30 10:21:30;;;;;;;27.80;16.93;;;;;;;19.84;42.81;152639.87;1819299;78;20999;-62
2022/03/30 10:24:29;;;;;;;28.23;16.65;;;;;;;19.84;42.76;152641.16;1815554;78;21068;-62
2022/03/30 10:27:22;;;;;;;31.10;16.62;;;;;;;19.84;42.72;152641.16;1780830;78;21229;-63
2022/03/30 10:29:52;;;;;;;24.45;16.35;;;;;;;19.87;42.64;152647.70;1824835;78;21047;-62
2022/03/30 10:32:23;;;;;;;24.45;16.23;;;;;;;19.89;42.50;152654.27;1825058;78;21807;-62
2022/03/30 10:35:08;;;;;;;30.85;17.57;;;;;;;19.89;42.08;152652.92;1823300;78;20971;-62
2022/03/30 10:37:43;;;;;;;31.33;17.13;;;;;;;19.87;41.86;152647.70;1810903;78;21020;-62
2022/03/30 10:40:21;;;;;;;28.67;15.55;;;;;;;19.83;41.79;152638.56;1823041;78;21752;-60
2022/03/30 10:42:57;;;;;;;26.50;15.45;;;;;;;19.82;41.56;152634.66;1807907;78;21408;-62
2022/03/30 10:45:34;;;;;;;29.18;16.42;;;;;;;19.80;41.28;152629.44;1809842;78;20991;-62
2022/03/30 10:48:23;;;;;;;26.02;15.80;;;;;;;19.76;40.92;152620.28;1744233;80;21003;-62
2022/03/30 10:50:57;;;;;;;30.30;15.38;;;;;;;19.72;40.59;152609.84;1791667;79;20999;-63
2022/03/30 10:53:35;;;;;;;24.27;15.08;;;;;;;19.68;40.46;152600.69;1794576;79;21118;-65
2022/03/30 10:56:14;;;;;;;25.60;15.70;;;;;;;19.66;40.62;152595.47;1794238;79;21100;-64
2022/03/30 10:58:58;;;;;;;21.62;14.68;;;;;;;19.63;40.99;152587.64;1794586;79;21070;-62
2022/03/30 11:01:31;;;;;;;23.65;14.95;;;;;;;19.62;41.34;152585.03;1794612;79;21078;-63
2022/03/30 11:04:09;;;;;;;29.50;14.73;;;;;;;19.63;41.41;152587.64;1792986;78;21030;-63
2022/03/30 11:06:38;;;;;;;25.92;14.28;;;;;;;19.68;41.37;152600.69;1793930;78;21171;-63
2022/03/30 11:09:11;;;;;;;25.12;14.20;;;;;;;19.76;41.30;152621.56;1794809;79;21030;-62
2022/03/30 11:11:43;;;;;;;27.55;14.28;;;;;;;19.83;41.25;152637.28;1794899;79;21074;-62
2022/03/30 11:14:31;;;;;;;22.62;14.25;;;;;;;19.91;40.95;152658.19;1794914;79;21057;-62
2022/03/30 11:17:07;;;;;;;26.90;15.20;;;;;;;19.98;40.53;152676.47;1794897;79;21035;-61
2022/03/30 11:19:55;;;;;;;24.32;14.58;;;;;;;19.98;40.05;152676.47;1795239;79;22500;-60
2022/03/30 11:22:25;;;;;;;23.32;14.25;;;;;;;19.95;39.73;152668.62;1801151;78;21032;-63
2022/03/30 11:25:19;;;;;;;20.27;14.47;;;;;;;19.86;39.72;152645.09;1779416;79;20882;-62
2022/03/30 11:28:02;;;;;;;22.32;14.73;;;;;;;19.79;39.86;152628.11;1779516;79;20984;-61
2022/03/30 11:30:32;;;;;;;23.57;13.78;;;;;;;19.66;39.79;152595.47;1772446;79;21107;-62
2022/03/30 11:33:19;;;;;;;24.80;14.43;;;;;;;19.57;39.64;152571.98;1779181;79;21152;-62